createdAt,value
2023-12-20T00:00:39.059Z,98069.56
2023-12-20T00:03:06.616Z,98063.56
2023-12-20T00:05:34.616Z,98067.84
2023-12-20T00:08:02.120Z,98074.66
2023-12-20T00:10:29.580Z,98070.41
2023-12-20T00:12:56.944Z,98067.84
2023-12-20T00:15:24.371Z,98076.38
2023-12-20T00:17:51.639Z,98066.97
2023-12-20T00:20:18.934Z,98071.25
2023-12-20T00:22:46.048Z,98081.53
2023-12-20T00:25:13.487Z,98064.44
2023-12-20T00:27:40.969Z,98049.06
2023-12-20T00:30:08.602Z,98068.69
2023-12-20T00:32:36.851Z,98075.53
2023-12-20T00:35:04.311Z,98068.69
2023-12-20T00:37:31.685Z,98072.13
2023-12-20T00:39:58.674Z,98063.56
2023-12-20T00:42:25.802Z,98067.84
2023-12-20T00:44:52.892Z,98070.41
2023-12-20T00:47:20.089Z,98080.69
2023-12-20T00:49:47.212Z,98061.88
2023-12-20T00:52:14.865Z,98077.25
2023-12-20T00:54:42.102Z,98084.06
2023-12-20T00:57:09.093Z,98084.94
2023-12-20T00:59:36.288Z,98080.66
2023-12-20T01:02:03.634Z,98071.28
2023-12-20T01:04:30.903Z,98061.00
2023-12-20T01:06:58.065Z,98072.97
2023-12-20T01:09:27.672Z,98072.13
2023-12-20T01:11:54.937Z,98063.59
2023-12-20T01:14:22.438Z,98065.28
2023-12-20T01:16:49.502Z,98062.72
2023-12-20T01:19:17.662Z,98064.44
2023-12-20T01:21:44.937Z,98066.13
2023-12-20T01:24:12.015Z,98065.28
2023-12-20T01:26:39.223Z,98072.13
2023-12-20T01:29:06.265Z,98069.56
2023-12-20T01:31:33.476Z,98073.81
2023-12-20T01:34:00.833Z,98061.00
2023-12-20T01:36:28.248Z,98056.75
2023-12-20T01:38:55.467Z,98065.28
2023-12-20T01:41:22.776Z,98058.44
2023-12-20T01:43:51.789Z,98050.75
2023-12-20T01:46:20.098Z,98042.22
2023-12-20T01:48:47.566Z,98034.53
2023-12-20T01:51:15.170Z,98031.13
2023-12-20T01:53:42.359Z,98026.00
2023-12-20T01:56:09.939Z,98031.97
2023-12-20T01:58:40.711Z,98026.84
2023-12-20T02:01:07.838Z,98031.13
2023-12-20T02:03:37.964Z,98040.53
2023-12-20T02:06:06.280Z,98026.84
2023-12-20T02:08:33.231Z,98022.56
2023-12-20T02:11:00.376Z,98010.59
2023-12-20T02:13:28.056Z,98015.75
2023-12-20T02:15:56.746Z,98015.75
2023-12-20T02:18:24.387Z,98015.72
2023-12-20T02:20:51.519Z,98016.59
2023-12-20T02:23:18.796Z,98010.59
2023-12-20T02:25:45.784Z,98010.59
2023-12-20T02:28:12.990Z,98019.16
2023-12-20T02:30:40.204Z,98020.00
2023-12-20T02:33:10.110Z,98011.47
2023-12-20T02:35:37.337Z,98017.44
2023-12-20T02:38:04.741Z,98021.72
2023-12-20T02:40:31.709Z,98011.47
2023-12-20T02:42:58.910Z,98014.03
2023-12-20T02:45:26.477Z,98020.84
2023-12-20T02:47:53.523Z,98026.00
2023-12-20T02:50:20.715Z,98018.28
2023-12-20T02:52:47.900Z,98019.16
2023-12-20T02:55:15.168Z,98022.56
2023-12-20T02:57:43.582Z,98023.44
2023-12-20T03:00:11.937Z,98008.06
2023-12-20T03:02:39.147Z,98005.47
2023-12-20T03:05:06.957Z,98008.03
2023-12-20T03:07:34.234Z,98008.88
2023-12-20T03:10:14.875Z,98011.47
2023-12-20T03:12:46.916Z,98010.59
2023-12-20T03:15:14.051Z,98021.72
2023-12-20T03:17:41.286Z,98027.69
2023-12-20T03:20:09.367Z,98034.50
2023-12-20T03:22:36.505Z,98023.41
2023-12-20T03:25:03.766Z,98029.38
2023-12-20T03:27:32.022Z,98035.38
2023-12-20T03:29:59.271Z,98043.06
2023-12-20T03:32:26.436Z,98049.03
2023-12-20T03:34:53.862Z,98034.53
2023-12-20T03:37:21.124Z,98022.56
2023-12-20T03:39:48.192Z,98026.81
2023-12-20T03:42:15.224Z,98025.13
2023-12-20T03:44:42.487Z,98039.66
2023-12-20T03:47:09.593Z,98039.63
2023-12-20T03:49:38.529Z,98039.63
2023-12-20T03:52:06.760Z,98050.75
2023-12-20T03:54:34.634Z,98046.50
2023-12-20T03:57:01.770Z,98049.03
2023-12-20T03:59:28.868Z,98056.72
2023-12-20T04:01:56.073Z,98049.88
2023-12-20T04:04:23.361Z,98055.00
2023-12-20T04:06:50.614Z,98049.03
2023-12-20T04:09:17.869Z,98035.38
2023-12-20T04:11:44.873Z,98034.53
2023-12-20T04:14:12.302Z,98042.22
2023-12-20T04:16:40.453Z,98044.78
2023-12-20T04:19:07.618Z,98038.81
2023-12-20T04:21:34.921Z,98038.81
2023-12-20T04:24:01.965Z,98048.19
2023-12-20T04:26:29.161Z,98043.94
2023-12-20T04:28:56.181Z,98052.47
2023-12-20T04:31:23.286Z,98053.31
2023-12-20T04:33:50.542Z,98061.00
2023-12-20T04:36:17.580Z,98046.50
2023-12-20T04:38:44.869Z,98051.63
2023-12-20T04:41:12.184Z,98044.78
2023-12-20T04:43:39.334Z,98048.19
2023-12-20T04:46:06.555Z,98055.91
2023-12-20T04:48:33.837Z,98055.88
2023-12-20T04:51:01.119Z,98059.28
2023-12-20T04:53:28.767Z,98059.28
2023-12-20T04:55:56.278Z,98065.28
2023-12-20T04:58:23.285Z,98068.69
2023-12-20T05:00:50.645Z,98065.28
2023-12-20T05:03:17.772Z,98067.84
2023-12-20T05:05:44.864Z,98072.97
2023-12-20T05:08:12.302Z,98074.69
2023-12-20T05:10:41.523Z,98067.84
2023-12-20T05:13:09.515Z,98070.41
2023-12-20T05:15:36.633Z,98063.56
2023-12-20T05:18:04.149Z,98069.56
2023-12-20T05:20:31.545Z,98079.81
2023-12-20T05:22:58.989Z,98076.41
2023-12-20T05:25:26.171Z,98083.22
2023-12-20T05:27:53.710Z,98088.34
2023-12-20T05:30:20.998Z,98085.78
2023-12-20T05:32:48.221Z,98091.75
2023-12-20T05:35:15.477Z,98088.34
2023-12-20T05:37:43.834Z,98088.34
2023-12-20T05:40:12.460Z,98092.59
2023-12-20T05:42:39.548Z,98090.91
2023-12-20T05:45:07.422Z,98084.91
2023-12-20T05:47:34.889Z,98090.03
2023-12-20T05:50:02.311Z,98072.09
2023-12-20T05:52:33.013Z,98075.53
2023-12-20T05:55:02.546Z,98084.06
2023-12-20T05:57:36.668Z,98081.50
2023-12-20T06:00:05.688Z,98078.94
2023-12-20T06:02:39.896Z,98086.63
2023-12-20T06:05:07.316Z,98080.63
2023-12-20T06:07:34.415Z,98083.19
2023-12-20T06:10:01.816Z,98072.94
2023-12-20T06:12:33.450Z,98085.75
2023-12-20T06:15:00.691Z,98081.50
2023-12-20T06:17:31.493Z,98082.34
2023-12-20T06:19:59.409Z,98086.63
2023-12-20T06:22:26.728Z,98082.34
2023-12-20T06:24:53.980Z,98079.81
2023-12-20T06:27:21.235Z,98088.31
2023-12-20T06:29:48.349Z,98088.34
2023-12-20T06:32:15.445Z,98097.75
2023-12-20T06:34:42.752Z,98095.19
2023-12-20T06:37:09.852Z,98094.31
2023-12-20T06:39:37.075Z,98097.75
2023-12-20T06:42:04.631Z,98100.31
2023-12-20T06:44:33.023Z,98088.34
2023-12-20T06:47:00.174Z,98095.19
2023-12-20T06:49:27.174Z,98105.44
2023-12-20T06:51:54.540Z,98095.19
2023-12-20T06:54:21.557Z,98099.44
2023-12-20T06:56:48.912Z,98102.03
2023-12-20T06:59:15.915Z,98098.59
2023-12-20T07:01:43.188Z,98103.72
2023-12-20T07:04:10.389Z,98106.28
2023-12-20T07:06:37.526Z,98108.84
2023-12-20T07:09:04.602Z,98109.72
2023-12-20T07:11:31.756Z,98111.41
2023-12-20T07:13:58.822Z,98108.88
2023-12-20T07:16:26.146Z,98114.84
2023-12-20T07:18:54.117Z,98116.53
2023-12-20T07:21:21.383Z,98119.97
2023-12-20T07:23:48.515Z,98119.97
2023-12-20T07:26:16.246Z,98111.41
2023-12-20T07:28:44.658Z,98119.97
2023-12-20T07:31:12.037Z,98129.38
2023-12-20T07:33:40.180Z,98116.56
2023-12-20T07:36:08.365Z,98121.66
2023-12-20T07:38:35.694Z,98149.88
2023-12-20T07:41:02.848Z,98131.94
2023-12-20T07:43:29.893Z,98137.06
2023-12-20T07:45:56.959Z,98133.63
2023-12-20T07:48:24.091Z,98138.78
2023-12-20T07:50:51.453Z,98137.06
2023-12-20T07:53:18.521Z,98133.63
2023-12-20T07:55:45.621Z,98129.38
2023-12-20T07:58:12.818Z,98125.09
2023-12-20T08:00:39.792Z,98125.94
2023-12-20T08:03:09.980Z,98124.22
2023-12-20T08:05:37.351Z,98114.81
2023-12-20T08:08:04.851Z,98124.22
2023-12-20T08:10:31.985Z,98118.25
2023-12-20T08:12:59.328Z,98124.25
2023-12-20T08:15:26.515Z,98113.13
2023-12-20T08:17:54.415Z,98113.13
2023-12-20T08:20:26.924Z,98115.69
2023-12-20T08:23:00.098Z,98114.84
2023-12-20T08:25:27.326Z,98116.53
2023-12-20T08:27:54.406Z,98113.13
2023-12-20T08:30:23.053Z,98122.53
2023-12-20T08:32:50.421Z,98125.09
2023-12-20T08:35:18.778Z,98121.66
2023-12-20T08:37:46.014Z,98120.78
2023-12-20T08:40:13.545Z,98125.09
2023-12-20T08:42:40.851Z,98118.22
2023-12-20T08:45:08.357Z,98118.25
2023-12-20T08:47:35.619Z,98115.66
2023-12-20T08:50:04.077Z,98115.66
2023-12-20T08:52:32.290Z,98115.66
2023-12-20T08:54:59.414Z,98113.97
2023-12-20T08:57:26.570Z,98117.38
2023-12-20T08:59:53.717Z,98124.19
2023-12-20T09:02:20.762Z,98119.09
2023-12-20T09:04:47.923Z,98116.50
2023-12-20T09:07:25.419Z,98109.66
2023-12-20T09:09:53.700Z,98108.78
2023-12-20T09:12:21.683Z,98107.09
2023-12-20T09:14:50.438Z,98107.94
2023-12-20T09:17:18.325Z,98112.22
2023-12-20T09:19:46.443Z,98111.34
2023-12-20T09:22:13.914Z,98110.50
2023-12-20T09:24:41.018Z,98106.22
2023-12-20T09:27:08.290Z,98109.66
2023-12-20T09:29:35.357Z,98125.00
2023-12-20T09:32:02.596Z,98116.44
2023-12-20T09:34:30.821Z,98119.88
2023-12-20T09:36:58.141Z,98125.88
2023-12-20T09:39:25.311Z,98122.44
2023-12-20T09:42:03.582Z,98121.53
2023-12-20T09:44:32.147Z,98117.25
2023-12-20T09:46:59.329Z,98112.19
2023-12-20T09:49:28.927Z,98125.88
2023-12-20T09:51:56.880Z,98120.78
2023-12-20T09:54:25.185Z,98125.06
2023-12-20T09:56:52.295Z,98128.44
2023-12-20T09:59:19.423Z,98126.75
2023-12-20T10:01:46.733Z,98119.91
2023-12-20T10:04:26.371Z,98127.63
2023-12-20T10:06:58.394Z,98128.47
2023-12-20T10:09:25.856Z,98117.38
2023-12-20T10:11:55.960Z,98121.66
2023-12-20T10:14:24.635Z,98125.91
2023-12-20T10:16:51.836Z,98124.19
2023-12-20T10:19:19.743Z,98116.50
2023-12-20T10:21:47.445Z,98125.03
2023-12-20T10:24:20.819Z,98125.03
2023-12-20T10:26:48.117Z,98119.91
2023-12-20T10:29:15.787Z,98119.03
2023-12-20T10:31:44.167Z,98122.47
2023-12-20T10:34:11.412Z,98121.59
2023-12-20T10:36:38.877Z,98127.59
2023-12-20T10:39:09.544Z,98127.59
2023-12-20T10:41:42.655Z,98119.03
2023-12-20T10:44:10.216Z,98117.31
2023-12-20T10:46:39.480Z,98118.22
2023-12-20T10:49:07.881Z,98120.78
2023-12-20T10:51:36.178Z,98122.47
2023-12-20T10:54:03.241Z,98128.44
2023-12-20T10:56:33.624Z,98121.59
2023-12-20T10:59:04.279Z,98123.28
2023-12-20T11:01:31.526Z,98122.47
2023-12-20T11:03:58.986Z,98124.19
2023-12-20T11:06:47.429Z,98119.03
2023-12-20T11:09:33.278Z,98107.94
2023-12-20T11:12:04.775Z,98115.63
2023-12-20T11:14:49.091Z,98112.22
2023-12-20T11:17:18.289Z,98122.50
2023-12-20T11:19:54.952Z,98122.50
2023-12-20T11:22:22.757Z,98125.94
2023-12-20T11:24:50.049Z,98126.78
2023-12-20T11:27:17.366Z,98124.22
2023-12-20T11:29:52.610Z,98125.94
2023-12-20T11:32:26.368Z,98129.34
2023-12-20T11:34:59.605Z,98122.50
2023-12-20T11:37:34.337Z,98117.38
2023-12-20T11:40:04.003Z,98128.47
2023-12-20T11:42:35.802Z,98132.75
2023-12-20T11:45:04.767Z,98132.78
2023-12-20T11:47:33.248Z,98125.91
2023-12-20T11:50:01.965Z,98128.50
2023-12-20T11:52:30.021Z,98128.50
2023-12-20T11:54:58.371Z,98128.50
2023-12-20T11:57:26.461Z,98131.94
2023-12-20T11:59:54.819Z,98145.63
2023-12-20T12:02:21.873Z,98142.19
2023-12-20T12:04:52.195Z,98143.88
2023-12-20T12:07:19.377Z,98146.47
2023-12-20T12:09:47.761Z,98143.88
2023-12-20T12:12:15.497Z,98139.63
2023-12-20T12:14:42.716Z,98143.91
2023-12-20T12:17:16.580Z,98140.47
2023-12-20T12:19:44.493Z,98138.75
2023-12-20T12:22:17.834Z,98144.72
2023-12-20T12:24:46.167Z,98148.94
2023-12-20T12:27:14.165Z,98149.78
2023-12-20T12:29:41.528Z,98150.66
2023-12-20T12:32:10.344Z,98144.72
2023-12-20T12:34:38.113Z,98144.72
2023-12-20T12:37:05.629Z,98154.13
2023-12-20T12:39:33.034Z,98154.97
2023-12-20T12:42:00.458Z,98154.13
2023-12-20T12:44:27.832Z,98151.56
2023-12-20T12:46:55.705Z,98144.72
2023-12-20T12:49:23.413Z,98156.66
2023-12-20T12:51:50.627Z,98154.97
2023-12-20T12:54:18.072Z,98152.41
2023-12-20T12:56:46.233Z,98149.84
2023-12-20T12:59:13.324Z,98147.28
2023-12-20T13:01:40.691Z,98150.69
2023-12-20T13:04:12.246Z,98148.94
2023-12-20T13:06:40.165Z,98154.06
2023-12-20T13:09:07.735Z,98153.22
2023-12-20T13:11:35.766Z,98154.06
2023-12-20T13:14:05.003Z,98154.91
2023-12-20T13:16:32.655Z,98154.91
2023-12-20T13:19:01.498Z,98152.34
2023-12-20T13:21:28.708Z,98154.94
2023-12-20T13:23:56.029Z,98154.03
2023-12-20T13:26:23.214Z,98155.75
2023-12-20T13:28:50.578Z,98156.59
2023-12-20T13:31:17.774Z,98155.72
2023-12-20T13:33:44.988Z,98160.00
2023-12-20T13:36:12.131Z,98162.56
2023-12-20T13:38:39.722Z,98156.59
2023-12-20T13:41:06.780Z,98158.34
2023-12-20T13:43:34.276Z,98162.59
2023-12-20T13:46:01.614Z,98168.59
2023-12-20T13:48:28.762Z,98165.19
2023-12-20T13:50:56.339Z,98161.78
2023-12-20T13:53:23.368Z,98172.84
2023-12-20T13:55:51.148Z,98162.56
2023-12-20T13:58:18.440Z,98169.34
2023-12-20T14:00:45.832Z,98165.97
2023-12-20T14:03:13.008Z,98173.63
2023-12-20T14:05:40.227Z,98174.47
2023-12-20T14:08:08.304Z,98177.88
2023-12-20T14:10:35.482Z,98179.59
2023-12-20T14:13:02.984Z,98183.88
2023-12-20T14:15:30.304Z,98186.41
2023-12-20T14:17:57.421Z,98191.56
2023-12-20T14:20:24.726Z,98197.56
2023-12-20T14:22:51.776Z,98196.75
2023-12-20T14:25:19.144Z,98193.34
2023-12-20T14:27:46.792Z,98200.16
2023-12-20T14:30:16.011Z,98197.56
2023-12-20T14:32:43.659Z,98201.00
2023-12-20T14:35:11.832Z,98195.06
2023-12-20T14:37:42.354Z,98197.63
2023-12-20T14:40:16.085Z,98197.63
2023-12-20T14:42:46.297Z,98195.06
2023-12-20T14:45:17.283Z,98195.09
2023-12-20T14:47:44.994Z,98190.84
2023-12-20T14:50:18.264Z,98189.09
2023-12-20T14:52:46.843Z,98188.22
2023-12-20T14:55:13.949Z,98189.09
2023-12-20T14:57:41.054Z,98203.59
2023-12-20T15:00:08.834Z,98199.31
2023-12-20T15:02:35.904Z,98193.34
2023-12-20T15:05:03.313Z,98189.94
2023-12-20T15:07:31.805Z,98185.66
2023-12-20T15:09:59.164Z,98183.09
2023-12-20T15:12:26.293Z,98183.09
2023-12-20T15:14:53.567Z,98178.84
2023-12-20T15:17:20.630Z,98177.13
2023-12-20T15:19:47.946Z,98172.84
2023-12-20T15:22:15.208Z,98183.97
2023-12-20T15:24:43.603Z,98184.84
2023-12-20T15:27:11.279Z,98183.97
2023-12-20T15:29:38.621Z,98185.66
2023-12-20T15:32:06.256Z,98185.66
2023-12-20T15:34:33.675Z,98177.13
2023-12-20T15:37:01.409Z,98172.88
2023-12-20T15:39:28.796Z,98169.47
2023-12-20T15:41:56.061Z,98180.56
2023-12-20T15:44:23.081Z,98189.09
2023-12-20T15:46:50.225Z,98189.97
2023-12-20T15:49:20.158Z,98195.06
2023-12-20T15:51:47.481Z,98207.84
2023-12-20T15:54:14.687Z,98223.22
2023-12-20T15:56:42.732Z,98230.03
2023-12-20T15:59:11.414Z,98230.94
2023-12-20T16:01:38.798Z,98240.31
2023-12-20T16:04:06.458Z,98231.78
2023-12-20T16:06:35.882Z,98233.47
2023-12-20T16:09:02.962Z,98230.91
2023-12-20T16:11:30.441Z,98231.78
2023-12-20T16:13:57.686Z,98231.78
2023-12-20T16:16:24.826Z,98237.75
2023-12-20T16:18:52.017Z,98235.22
2023-12-20T16:21:19.120Z,98236.91
2023-12-20T16:23:46.764Z,98235.16
2023-12-20T16:26:14.878Z,98245.41
2023-12-20T16:28:42.138Z,98239.44
2023-12-20T16:31:09.545Z,98240.31
2023-12-20T16:33:36.834Z,98238.59
2023-12-20T16:36:04.189Z,98239.44
2023-12-20T16:38:31.293Z,98239.44
2023-12-20T16:40:58.321Z,98246.25
2023-12-20T16:43:25.694Z,98242.00
2023-12-20T16:45:52.933Z,98243.72
2023-12-20T16:48:20.100Z,98240.28
2023-12-20T16:50:50.344Z,98240.28
2023-12-20T16:53:17.465Z,98240.31
2023-12-20T16:55:45.694Z,98246.28
2023-12-20T16:58:13.421Z,98250.56
2023-12-20T17:00:43.839Z,98253.97
2023-12-20T17:03:10.999Z,98270.22
2023-12-20T17:05:38.242Z,98268.53
2023-12-20T17:08:05.526Z,98280.44
2023-12-20T17:10:32.796Z,98278.72
2023-12-20T17:13:00.060Z,98282.16
2023-12-20T17:15:27.153Z,98280.44
2023-12-20T17:17:54.894Z,98284.75
2023-12-20T17:20:23.538Z,98273.66
2023-12-20T17:22:50.565Z,98281.34
2023-12-20T17:25:18.169Z,98272.78
2023-12-20T17:27:47.226Z,98277.94
2023-12-20T17:30:14.954Z,98271.09
2023-12-20T17:32:49.671Z,98265.97
2023-12-20T17:35:17.003Z,98260.81
2023-12-20T17:37:44.246Z,98270.19
2023-12-20T17:40:11.731Z,98272.75
2023-12-20T17:42:38.766Z,98260.78
2023-12-20T17:45:06.229Z,98260.81
2023-12-20T17:47:33.449Z,98252.28
2023-12-20T17:50:00.835Z,98250.56
2023-12-20T17:52:27.873Z,98248.00
2023-12-20T17:54:55.038Z,98253.09
2023-12-20T17:57:24.447Z,98255.66
2023-12-20T17:59:51.981Z,98258.22
2023-12-20T18:02:19.988Z,98262.50
2023-12-20T18:04:47.318Z,98260.78
2023-12-20T18:07:14.863Z,98260.75
2023-12-20T18:09:42.004Z,98258.19
2023-12-20T18:12:09.802Z,98259.88
2023-12-20T18:14:36.877Z,98254.78
2023-12-20T18:17:03.977Z,98249.63
2023-12-20T18:19:31.433Z,98259.88
2023-12-20T18:21:59.054Z,98264.13
2023-12-20T18:24:26.290Z,98262.44
2023-12-20T18:26:53.362Z,98271.00
2023-12-20T18:29:20.479Z,98272.66
2023-12-20T18:31:47.621Z,98271.81
2023-12-20T18:34:14.933Z,98270.09
2023-12-20T18:36:43.944Z,98270.09
2023-12-20T18:39:11.367Z,98270.94
2023-12-20T18:41:38.748Z,98272.63
2023-12-20T18:44:05.892Z,98280.34
2023-12-20T18:46:33.091Z,98283.78
2023-12-20T18:49:00.258Z,98282.88
2023-12-20T18:51:27.466Z,98281.97
2023-12-20T18:53:55.642Z,98282.84
2023-12-20T18:56:25.785Z,98289.69
2023-12-20T18:58:53.055Z,98281.16
2023-12-20T19:01:20.360Z,98291.38
2023-12-20T19:03:47.570Z,98284.56
2023-12-20T19:06:14.701Z,98281.13
2023-12-20T19:08:42.661Z,98287.97
2023-12-20T19:11:09.860Z,98297.38
2023-12-20T19:13:37.088Z,98285.47
2023-12-20T19:16:04.738Z,98289.72
2023-12-20T19:18:31.900Z,98289.72
2023-12-20T19:21:00.102Z,98294.00
2023-12-20T19:23:28.699Z,98296.56
2023-12-20T19:25:55.945Z,98301.69
2023-12-20T19:28:22.959Z,98297.41
2023-12-20T19:30:50.552Z,98299.09
2023-12-20T19:33:17.669Z,98294.75
2023-12-20T19:35:44.985Z,98286.19
2023-12-20T19:38:12.562Z,98280.22
2023-12-20T19:40:39.687Z,98278.50
2023-12-20T19:43:09.817Z,98276.84
2023-12-20T19:45:37.284Z,98279.41
2023-12-20T19:48:04.706Z,98284.56
2023-12-20T19:50:31.914Z,98279.44
2023-12-20T19:52:59.533Z,98278.56
2023-12-20T19:55:26.826Z,98282.84
2023-12-20T19:57:55.658Z,98274.31
2023-12-20T20:00:22.930Z,98278.59
2023-12-20T20:02:50.070Z,98276.88
2023-12-20T20:05:17.532Z,98272.59
2023-12-20T20:07:45.203Z,98277.72
2023-12-20T20:10:12.345Z,98285.41
2023-12-20T20:12:40.162Z,98290.53
2023-12-20T20:15:07.710Z,98282.00
2023-12-20T20:17:34.978Z,98277.72
2023-12-20T20:20:03.645Z,98277.72
2023-12-20T20:22:32.420Z,98278.59
2023-12-20T20:24:59.559Z,98271.72
2023-12-20T20:27:26.978Z,98281.06
2023-12-20T20:29:54.046Z,98275.91
2023-12-20T20:32:21.327Z,98279.38
2023-12-20T20:34:48.747Z,98270.84
2023-12-20T20:37:16.105Z,98263.19
2023-12-20T20:39:43.424Z,98264.03
2023-12-20T20:42:10.817Z,98263.19
2023-12-20T20:44:38.005Z,98252.09
2023-12-20T20:47:05.142Z,98248.66
2023-12-20T20:49:32.406Z,98245.25
2023-12-20T20:51:59.735Z,98225.63
2023-12-20T20:54:26.890Z,98214.50
2023-12-20T20:56:54.109Z,98206.81
2023-12-20T20:59:21.388Z,98208.56
2023-12-20T21:01:48.782Z,98214.50
2023-12-20T21:04:17.694Z,98223.00
2023-12-20T21:06:45.053Z,98223.88
2023-12-20T21:09:12.161Z,98219.56
2023-12-20T21:11:39.456Z,98217.84
2023-12-20T21:14:06.871Z,98201.63
2023-12-20T21:16:34.445Z,98205.03
2023-12-20T21:19:03.780Z,98199.84
2023-12-20T21:21:33.556Z,98198.16
2023-12-20T21:24:00.635Z,98181.09
2023-12-20T21:26:27.956Z,98183.59
2023-12-20T21:28:55.766Z,98181.06
2023-12-20T21:31:23.351Z,98171.69
2023-12-20T21:33:53.844Z,98174.25
2023-12-20T21:36:21.840Z,98168.28
2023-12-20T21:38:48.765Z,98165.72
2023-12-20T21:41:23.112Z,98156.31
2023-12-20T21:43:52.838Z,98164.81
2023-12-20T21:46:20.551Z,98160.56
2023-12-20T21:48:47.993Z,98154.59
2023-12-20T21:51:15.632Z,98165.66
2023-12-20T21:53:43.100Z,98157.16
2023-12-20T21:56:11.779Z,98158.00
2023-12-20T21:58:39.062Z,98143.47
2023-12-20T22:01:07.073Z,98132.38
2023-12-20T22:03:35.931Z,98116.13
2023-12-20T22:06:04.270Z,98123.78
2023-12-20T22:08:31.717Z,98111.81
2023-12-20T22:10:58.783Z,98099.00
2023-12-20T22:13:27.490Z,98099.88
2023-12-20T22:15:55.936Z,98098.97
2023-12-20T22:18:23.312Z,98075.13
2023-12-20T22:20:50.517Z,98068.25
2023-12-20T22:23:17.812Z,98058.84
2023-12-20T22:25:45.189Z,98056.28
2023-12-20T22:28:12.943Z,98063.06
2023-12-20T22:30:40.310Z,98074.97
2023-12-20T22:33:07.678Z,98072.38
2023-12-20T22:35:35.079Z,98059.59
2023-12-20T22:38:05.775Z,98059.59
2023-12-20T22:40:32.947Z,98064.66
2023-12-20T22:43:00.317Z,98055.28
2023-12-20T22:45:27.455Z,98050.13
2023-12-20T22:47:54.776Z,98047.59
2023-12-20T22:50:24.931Z,98036.50
2023-12-20T22:52:52.263Z,98036.47
2023-12-20T22:55:20.041Z,98031.31
2023-12-20T22:57:48.077Z,98034.66
2023-12-20T23:00:23.617Z,98027.00
2023-12-20T23:02:51.887Z,98025.31
2023-12-20T23:05:19.149Z,98030.34
2023-12-20T23:07:46.599Z,98026.94
2023-12-20T23:10:14.050Z,98017.50
2023-12-20T23:12:41.092Z,98011.50
2023-12-20T23:15:08.911Z,98010.56
2023-12-20T23:17:36.722Z,98006.25
2023-12-20T23:20:04.761Z,97993.38
2023-12-20T23:22:32.193Z,98003.53
2023-12-20T23:24:59.727Z,97988.97
2023-12-20T23:27:26.928Z,97991.53
2023-12-20T23:29:54.892Z,97996.50
2023-12-20T23:32:22.048Z,98000.69
2023-12-20T23:35:00.775Z,97999.00
2023-12-20T23:37:36.406Z,97992.19
2023-12-20T23:40:04.597Z,97995.56
2023-12-20T23:42:31.812Z,98005.81
2023-12-20T23:44:58.794Z,98002.38
2023-12-20T23:47:25.787Z,97990.50
2023-12-20T23:49:52.963Z,97994.78
2023-12-20T23:52:20.182Z,97981.13
2023-12-20T23:54:47.364Z,97963.25
2023-12-20T23:57:14.364Z,97959.88
2023-12-20T23:59:41.577Z,97957.28
